Damascus, Syria
Current Conditions -  °F | °C
As of 5:00 AM on Saturday 25 Oct 2014 (Local Time) from OSDI Reporting Station
Clear Clear  
Wind Chill: 10°   Ceiling: Unl
Heat Index: 10°   Visibility: 6mi
Dew Point:   Wind: 2mph
Humidity: 71%   Direction: 330°NNW
Pressure: 30.09"   Gusts: NA
Location:  33.5°N, 36.32°E
Report Text: OSDI 250200Z 33002KT CAVOK 10/05 Q1019
Loading
Personal Weather Stations






























Interactive Weather Map New forecast layout! Learn more

10-Day Weather Forecast

Advertisements
Track Severe Weather on mobile